Time;durP1;ratioP1;P1;durP2;ratioP2;P2;SDS_P1;SDS_P2;PMS_P1;PMS_P2;Temp;Humidity;BMP_temperature;BMP_pressure;BME280_temperature;BME280_humidity;BME280_pressure;Samples;Min_cycle;Max_cycle;Signal;HPM_P1;HPM_P2
2022/02/05 00:02:16;;;;;;;;;40.75;33.75;;;;;4.40;57.85;101514.66;146608;578;47010;-78
2022/02/05 00:05:10;;;;;;;;;30.50;29.75;;;;;4.34;57.86;101514.13;146605;616;46010;-77
2022/02/05 00:11:51;;;;;;;;;16.00;15.25;;;;;4.31;57.54;101503.56;146603;587;46016;-82
2022/02/05 00:40:10;;;;;;;;;13.00;12.00;;;;;4.10;57.05;101479.47;146606;577;46020;-74
2022/02/05 00:43:02;;;;;;;;;11.25;10.50;;;;;4.10;56.91;101480.34;146604;575;46012;-74
2022/02/05 00:45:55;;;;;;;;;14.50;10.50;;;;;4.11;57.08;101477.03;146608;591;46008;-74
2022/02/05 00:48:48;;;;;;;;;13.50;10.25;;;;;4.14;56.54;101477.31;146603;564;47010;-74
2022/02/05 00:51:55;;;;;;;;;13.50;11.00;;;;;4.18;57.55;101465.66;146610;599;45021;-74
2022/02/05 00:54:51;;;;;;;;;12.75;11.50;;;;;4.17;58.05;101471.53;146607;585;46010;-74
2022/02/05 00:57:46;;;;;;;;;20.00;17.50;;;;;4.05;57.59;101458.53;146607;590;47008;-74
2022/02/05 01:00:41;;;;;;;;;20.50;18.00;;;;;3.97;58.51;101461.19;146605;577;46024;-74
2022/02/05 01:03:33;;;;;;;;;26.50;21.75;;;;;3.89;57.09;101461.41;146608;582;46020;-74
2022/02/05 01:06:26;;;;;;;;;33.25;27.75;;;;;3.86;57.65;101465.34;146606;577;46914;-74
2022/02/05 01:09:22;;;;;;;;;40.25;35.00;;;;;3.83;57.99;101462.50;146609;575;46008;-72
2022/02/05 01:12:15;;;;;;;;;41.75;35.00;;;;;3.77;58.26;101467.06;146602;620;47010;-71
2022/02/05 01:15:08;;;;;;;;;44.25;38.50;;;;;3.72;58.57;101466.69;146607;723;46012;-72
2022/02/05 01:18:04;;;;;;;;;47.75;40.00;;;;;3.68;58.14;101465.50;146607;602;46010;-71
2022/02/05 01:21:07;;;;;;;;;47.25;38.00;;;;;3.67;58.95;101462.78;146607;632;46020;-71
2022/02/05 01:24:03;;;;;;;;;41.25;34.25;;;;;3.61;59.48;101457.09;146605;653;47010;-72
2022/02/05 01:27:05;;;;;;;;;34.75;32.25;;;;;3.52;61.17;101446.94;146606;563;46020;-73
2022/02/05 01:39:29;;;;;;;;;36.75;33.50;;;;;3.43;60.02;101435.84;146606;581;46016;-75
2022/02/05 01:49:36;;;;;;;;;24.75;23.25;;;;;3.39;59.77;101433.75;146600;718;46016;-75
2022/02/05 01:53:00;;;;;;;;;27.25;22.25;;;;;3.35;60.37;101423.97;146610;586;46012;-78
2022/02/05 01:59:20;;;;;;;;;24.75;24.00;;;;;3.30;59.45;101427.78;146603;615;46021;-73
2022/02/05 02:05:29;;;;;;;;;24.75;23.00;;;;;2.95;60.64;101353.72;146609;759;46008;-75
2022/02/05 02:15:11;;;;;;;;;24.25;18.00;;;;;3.30;59.40;101427.78;146602;644;46017;-76
2022/02/05 02:21:37;;;;;;;;;20.75;18.00;;;;;3.35;59.48;101421.41;146604;660;46912;-74
2022/02/05 02:28:04;;;;;;;;;18.25;15.25;;;;;3.24;60.58;101416.22;146604;608;47011;-74
2022/02/05 02:31:04;;;;;;;;;18.75;15.25;;;;;3.10;62.19;101401.22;146605;673;46020;-75
2022/02/05 02:34:00;;;;;;;;;10.50;10.50;;;;;3.03;61.63;101401.44;146601;588;47013;-75
2022/02/05 02:36:56;;;;;;;;;51.75;43.00;;;;;3.00;61.13;101409.75;146610;579;46008;-79
2022/02/05 02:40:04;;;;;;;;;18.00;16.00;;;;;2.98;61.68;101395.87;146606;574;46010;-76
2022/02/05 02:43:08;;;;;;;;;33.50;30.75;;;;;2.99;61.45;101402.81;146605;611;47021;-77
2022/02/05 02:46:00;;;;;;;;;26.25;20.50;;;;;2.99;60.84;101401.91;146602;639;47010;-77
2022/02/05 02:48:52;;;;;;;;;118.25;101.50;;;;;3.03;61.07;101400.53;146613;624;46008;-77
2022/02/05 02:58:08;;;;;;;;;21.75;19.00;;;;;3.03;60.00;101411.69;146603;573;46016;-74
2022/02/05 03:01:01;;;;;;;;;22.75;21.50;;;;;3.10;59.78;101411.47;146605;563;46020;-73
2022/02/05 03:03:53;;;;;;;;;20.50;17.00;;;;;3.19;60.10;101411.44;146604;673;46010;-74
2022/02/05 03:06:45;;;;;;;;;20.50;18.50;;;;;3.31;60.55;101421.91;146608;573;46008;-76
2022/02/05 03:09:38;;;;;;;;;38.00;34.50;;;;;3.38;59.88;101434.50;146608;626;46010;-77
2022/02/05 03:12:30;;;;;;;;;30.50;30.00;;;;;3.40;60.19;101422.75;146607;565;46021;-75
2022/02/05 03:15:23;;;;;;;;;25.00;21.25;;;;;3.30;61.74;101420.09;146606;599;46010;-76
2022/02/05 03:18:28;;;;;;;;;44.00;36.00;;;;;3.20;60.37;101419.25;146607;581;46025;-76
2022/02/05 03:21:20;;;;;;;;;64.00;50.25;;;;;3.14;60.46;101425.47;146604;590;46010;-78
2022/02/05 03:24:12;;;;;;;;;46.00;35.00;;;;;3.10;62.02;101411.47;146609;628;46008;-81
2022/02/05 03:27:04;;;;;;;;;31.25;24.75;;;;;3.04;61.19;101410.91;146605;609;47010;-81
2022/02/05 03:29:56;;;;;;;;;36.75;30.50;;;;;2.99;62.17;101413.06;146602;604;46916;-77
2022/02/05 03:32:49;;;;;;;;;28.75;24.75;;;;;2.95;62.52;101412.63;146605;570;47010;-76
2022/02/05 03:35:41;;;;;;;;;27.00;22.75;;;;;2.91;61.64;101400.31;146609;580;45022;-76
2022/02/05 03:38:34;;;;;;;;;24.50;22.25;;;;;2.88;62.84;101400.03;146606;642;46010;-76
2022/02/05 03:41:25;;;;;;;;;22.25;21.00;;;;;2.83;62.00;101401.25;146606;569;46020;-76
2022/02/05 03:44:18;;;;;;;;;31.00;26.25;;;;;2.78;63.90;101395.72;146605;581;46010;-76
2022/02/05 03:47:10;;;;;;;;;18.00;17.25;;;;;2.72;64.03;101393.47;146608;594;46008;-76
2022/02/05 03:50:04;;;;;;;;;22.00;15.75;;;;;2.66;62.23;101392.91;146604;605;46016;-77
2022/02/05 03:52:55;;;;;;;;;21.25;20.50;;;;;2.63;63.78;101390.06;146609;762;46012;-75
2022/02/05 03:55:48;;;;;;;;;22.50;20.50;;;;;2.62;62.84;101395.97;146605;643;46011;-72
2022/02/05 03:58:41;;;;;;;;;32.25;25.75;;;;;2.62;62.17;101398.50;146605;639;47008;-72
2022/02/05 04:01:33;;;;;;;;;28.25;25.50;;;;;2.64;63.64;101391.84;146605;580;47010;-72
2022/02/05 04:04:28;;;;;;;;;28.50;24.50;;;;;2.62;63.73;101397.62;146607;780;46020;-71
2022/02/05 04:07:20;;;;;;;;;37.25;33.25;;;;;2.60;62.37;101399.13;146604;563;46031;-72
2022/02/05 04:10:16;;;;;;;;;33.25;28.50;;;;;2.59;64.29;101405.91;146607;582;46020;-72
2022/02/05 04:16:28;;;;;;;;;42.00;36.25;;;;;2.45;65.12;101401.12;146608;612;46020;-75
2022/02/05 04:19:21;;;;;;;;;30.75;27.50;;;;;2.36;63.63;101396.06;146603;566;46031;-75
2022/02/05 04:22:13;;;;;;;;;28.50;25.75;;;;;2.34;63.36;101405.25;146609;611;46020;-82
2022/02/05 04:25:05;;;;;;;;;20.75;20.25;;;;;2.36;63.28;101400.28;146606;570;46016;-82
2022/02/05 04:27:58;;;;;;;;;20.25;20.25;;;;;2.44;63.89;101404.47;146611;743;46021;-82
2022/02/05 04:30:50;;;;;;;;;18.75;16.75;;;;;2.51;64.48;101414.53;146608;615;46010;-83
2022/02/05 04:33:43;;;;;;;;;18.00;15.00;;;;;2.55;63.38;101416.59;146610;647;46020;-82
2022/02/05 04:36:37;;;;;;;;;20.50;15.25;;;;;2.59;63.13;101423.84;146608;643;46010;-82
2022/02/05 04:39:30;;;;;;;;;18.25;16.25;;;;;2.62;62.77;101423.22;146611;564;46012;-76
2022/02/05 04:42:30;;;;;;;;;17.75;15.50;;;;;2.60;63.55;101424.72;146607;595;46010;-75
2022/02/05 04:52:20;;;;;;;;;19.75;13.25;;;;;2.46;63.17;101416.66;146612;617;45020;-77
2022/02/05 04:58:35;;;;;;;;;16.00;14.75;;;;;2.48;63.65;101411.66;146609;631;46008;-77
2022/02/05 05:04:48;;;;;;;;;15.75;11.50;;;;;2.49;63.87;101424.63;146609;579;46008;-76
2022/02/05 05:07:56;;;;;;;;;13.00;11.50;;;;;2.47;64.11;101431.25;146608;624;46010;-77
2022/02/05 05:20:20;;;;;;;;;17.00;13.75;;;;;2.52;62.56;101450.53;146605;604;46012;-71
2022/02/05 05:23:12;;;;;;;;;17.50;15.25;;;;;2.51;64.07;101448.69;146608;692;47012;-71
2022/02/05 05:26:05;;;;;;;;;17.50;14.25;;;;;2.46;63.51;101460.19;146604;583;46017;-72
2022/02/05 05:28:57;;;;;;;;;26.75;20.00;;;;;2.45;62.45;101468.59;146604;654;46020;-72
2022/02/05 05:31:49;;;;;;;;;23.00;20.75;;;;;2.45;63.39;101472.81;146603;714;47010;-78
2022/02/05 05:34:41;;;;;;;;;22.50;19.75;;;;;2.41;64.17;101476.75;146609;565;46020;-83
2022/02/05 05:37:34;;;;;;;;;28.25;24.75;;;;;2.38;64.19;101463.66;146604;579;46010;-79
2022/02/05 05:40:26;;;;;;;;;23.25;19.75;;;;;2.31;66.04;101477.53;146609;628;45020;-79
2022/02/05 05:43:36;;;;;;;;;29.50;26.25;;;;;2.27;64.77;101485.66;146605;667;46016;-78
2022/02/05 05:46:35;;;;;;;;;32.25;26.25;;;;;2.25;65.94;101483.72;146607;578;46013;-79
2022/02/05 05:49:45;;;;;;;;;43.00;33.25;;;;;2.23;66.01;101481.00;146606;593;46017;-78
2022/02/05 05:52:37;;;;;;;;;48.50;39.00;;;;;2.26;65.32;101490.63;146608;569;46020;-78
2022/02/05 05:55:30;;;;;;;;;44.75;34.00;;;;;2.33;64.84;101498.13;146604;600;46914;-78
2022/02/05 05:58:23;;;;;;;;;44.00;36.50;;;;;2.42;64.22;101499.00;146603;563;46020;-79
2022/02/05 06:01:15;;;;;;;;;49.00;37.75;;;;;2.48;64.42;101499.59;146604;606;46017;-81
2022/02/05 06:04:07;;;;;;;;;42.25;36.00;;;;;2.50;65.05;101512.56;146609;590;46008;-80
2022/02/05 06:07:00;;;;;;;;;42.00;33.25;;;;;2.49;64.13;101513.28;146603;609;46016;-80
2022/02/05 06:09:52;;;;;;;;;34.25;34.25;;;;;2.82;63.99;101523.28;146607;593;46020;-74
2022/02/05 06:12:44;;;;;;;;;44.75;36.75;;;;;3.62;62.87;101531.63;146605;639;47010;-73
2022/02/05 06:15:37;;;;;;;;;84.33;69.33;;;;;4.44;60.79;101527.00;146607;581;47008;-82
2022/02/05 06:18:30;;;;;;;;;54.50;42.25;;;;;5.36;59.22;101526.31;146610;599;46010;-82
2022/02/05 06:21:22;;;;;;;;;58.25;43.00;;;;;6.40;57.59;101530.72;146605;650;46020;-83
2022/02/05 06:24:14;;;;;;;;;39.75;35.75;;;;;7.51;55.17;101526.50;146607;574;46010;-78
2022/02/05 06:27:07;;;;;;;;;51.00;41.00;;;;;8.59;52.69;101525.94;146606;594;46020;-80
2022/02/05 06:30:00;;;;;;;;;46.00;39.25;;;;;9.59;50.28;101527.72;146609;627;46012;-78
2022/02/05 06:32:52;;;;;;;;;41.50;34.25;;;;;10.41;47.75;101519.38;146609;624;46008;-75
2022/02/05 06:35:44;;;;;;;;;35.25;29.00;;;;;10.86;46.51;101523.09;146606;637;46914;-77
2022/02/05 06:38:36;;;;;;;;;41.00;33.50;;;;;11.35;46.60;101520.03;146607;598;46027;-78
2022/02/05 06:41:29;;;;;;;;;68.00;53.25;;;;;11.91;45.18;101514.75;146605;574;46010;-74
2022/02/05 06:44:21;;;;;;;;;67.25;51.50;;;;;12.53;44.46;101524.38;146608;570;46008;-74
2022/02/05 06:47:13;;;;;;;;;54.25;44.00;;;;;13.08;42.81;101523.09;146604;585;47010;-71
2022/02/05 06:50:07;;;;;;;;;64.75;48.00;;;;;13.48;40.79;101514.78;146606;577;46020;-74
2022/02/05 06:52:59;;;;;;;;;85.67;75.33;;;;;13.66;40.96;101519.16;146606;571;46010;-72
2022/02/05 06:55:51;;;;;;;;;54.00;42.75;;;;;13.75;40.39;101515.31;146611;570;46021;-78
2022/02/05 06:58:43;;;;;;;;;73.50;56.75;;;;;13.58;39.91;101518.75;146605;569;47010;-71
2022/02/05 07:01:36;;;;;;;;;53.25;41.75;;;;;13.20;41.00;101517.63;146610;640;46008;-86
2022/02/05 07:04:28;;;;;;;;;52.75;42.50;;;;;12.93;39.82;101517.06;146604;591;47010;-85
2022/02/05 07:07:21;;;;;;;;;85.00;74.33;;;;;12.57;40.09;101524.59;146610;571;46020;-85
2022/02/05 07:10:13;;;;;;;;;96.33;81.00;;;;;12.07;42.01;101527.84;146611;586;46012;-75
2022/02/05 07:13:14;;;;;;;;;89.67;84.33;;;;;11.73;42.98;101520.63;146616;563;46020;-78
2022/02/05 07:16:18;;;;;;;;;68.00;52.00;;;;;11.55;43.61;101524.72;146610;584;46016;-79
2022/02/05 07:19:23;;;;;;;;;68.00;54.75;;;;;11.47;44.26;101513.00;146608;570;46008;-81
2022/02/05 07:22:15;;;;;;;;;50.75;40.00;;;;;11.45;44.11;101515.50;146606;569;46010;-77
2022/02/05 07:31:32;;;;;;;;;48.75;40.75;;;;;11.50;43.86;101519.28;146608;584;46008;-76
2022/02/05 07:34:27;;;;;;;;;55.00;43.75;;;;;11.50;43.88;101520.97;146604;627;46914;-77
2022/02/05 07:37:20;;;;;;;;;54.75;44.75;;;;;11.41;43.57;101515.22;146608;565;46008;-77
2022/02/05 07:40:13;;;;;;;;;53.50;40.25;;;;;11.30;43.46;101517.16;146606;689;46016;-76
2022/02/05 07:43:05;;;;;;;;;53.25;43.75;;;;;11.19;43.62;101511.31;146606;695;46012;-76
2022/02/05 07:45:58;;;;;;;;;50.00;39.75;;;;;11.14;44.00;101504.94;146601;617;46017;-75
2022/02/05 07:48:50;;;;;;;;;44.75;35.75;;;;;11.09;43.96;101502.06;146607;596;47012;-77
2022/02/05 07:51:43;;;;;;;;;41.00;29.75;;;;;10.98;45.91;101490.13;146606;564;47010;-71
2022/02/05 07:54:35;;;;;;;;;24.25;22.25;;;;;11.04;47.52;101495.69;146605;653;47008;-71
2022/02/05 07:57:30;;;;;;;;;32.75;26.75;;;;;11.24;47.94;101496.00;146606;595;46010;-71
2022/02/05 08:00:22;;;;;;;;;30.75;26.50;;;;;11.62;47.67;101494.81;146608;623;46008;-72
2022/02/05 08:03:14;;;;;;;;;38.50;31.25;;;;;11.94;44.82;101492.44;146605;590;46010;-74
2022/02/05 08:06:14;;;;;;;;;40.75;35.00;;;;;12.13;43.70;101501.31;146606;611;46020;-75
2022/02/05 08:09:21;;;;;;;;;48.25;39.00;;;;;12.29;44.41;101503.06;146603;633;47012;-75
2022/02/05 08:12:16;;;;;;;;;52.00;42.25;;;;;12.44;43.69;101494.41;146607;569;46008;-74
2022/02/05 08:15:09;;;;;;;;;41.25;32.00;;;;;12.61;43.40;101499.66;146603;597;46016;-74
2022/02/05 08:18:01;;;;;;;;;44.50;35.00;;;;;12.75;43.42;101497.84;146609;580;46020;-74
2022/02/05 08:20:54;;;;;;;;;42.25;34.50;;;;;12.82;42.94;101486.94;146605;573;47010;-75
2022/02/05 08:23:46;;;;;;;;;46.75;37.75;;;;;12.97;42.99;101498.19;146604;585;46021;-75
2022/02/05 08:26:39;;;;;;;;;39.50;31.50;;;;;13.07;43.00;101492.62;146605;650;47010;-74
2022/02/05 08:29:32;;;;;;;;;41.00;33.00;;;;;13.16;41.98;101492.25;146607;627;47008;-75
2022/02/05 08:32:27;;;;;;;;;38.25;33.25;;;;;12.27;42.32;101336.53;146604;565;47010;-75
2022/02/05 08:35:19;;;;;;;;;46.00;36.75;;;;;13.24;42.66;101498.75;146608;593;46008;-75
2022/02/05 08:38:12;;;;;;;;;40.00;33.25;;;;;13.26;42.17;101497.16;146604;637;46017;-74
2022/02/05 08:41:04;;;;;;;;;48.00;36.50;;;;;13.28;42.09;101495.53;146607;640;46020;-74
2022/02/05 08:43:56;;;;;;;;;48.50;40.25;;;;;13.23;40.75;101490.84;146605;563;46010;-74
2022/02/05 08:46:49;;;;;;;;;44.50;35.50;;;;;13.16;42.28;101503.53;146604;578;46021;-74
2022/02/05 08:49:41;;;;;;;;;49.75;40.00;;;;;13.23;42.30;101489.12;146604;643;46016;-75
2022/02/05 08:52:38;;;;;;;;;55.25;43.00;;;;;13.41;42.16;101491.84;146606;674;46020;-74
2022/02/05 08:55:33;;;;;;;;;54.50;41.00;;;;;13.65;42.00;101483.50;146603;696;46016;-73
2022/02/05 08:58:25;;;;;;;;;47.00;38.00;;;;;13.86;41.18;101482.88;146607;662;46020;-75
2022/02/05 09:01:22;;;;;;;;;43.75;36.50;;;;;13.96;39.17;101478.13;146604;607;46012;-74
2022/02/05 09:04:33;;;;;;;;;42.00;33.75;;;;;13.94;41.01;101478.03;146608;573;46020;-74
2022/02/05 09:07:25;;;;;;;;;36.25;30.75;;;;;14.06;41.10;101480.34;146607;623;46016;-73
2022/02/05 09:10:33;;;;;;;;;38.25;32.50;;;;;14.26;41.16;101484.81;146606;617;46020;-75
2022/02/05 09:13:58;;;;;;;;;37.00;31.00;;;;;14.48;40.46;101478.91;146606;690;47010;-75
2022/02/05 09:16:50;;;;;;;;;40.00;34.50;;;;;14.62;40.21;101471.78;146606;606;47008;-75
2022/02/05 09:19:44;;;;;;;;;48.50;38.00;;;;;14.67;38.93;101471.97;146603;582;46016;-75
2022/02/05 09:22:37;;;;;;;;;49.00;40.25;;;;;14.68;39.66;101465.94;146606;757;47008;-75
2022/02/05 09:25:29;;;;;;;;;47.00;38.00;;;;;14.71;38.96;101472.22;146603;621;46016;-74
2022/02/05 09:28:22;;;;;;;;;49.75;40.75;;;;;14.74;40.10;101477.56;146606;564;46026;-73
2022/02/05 09:31:26;;;;;;;;;48.75;39.75;;;;;14.86;39.03;101478.94;146605;599;46010;-74
2022/02/05 09:34:18;;;;;;;;;47.00;37.50;;;;;14.96;39.73;101483.78;146607;583;46008;-74
2022/02/05 09:37:10;;;;;;;;;44.25;36.25;;;;;15.09;39.73;101473.06;146606;649;46010;-74
2022/02/05 09:40:02;;;;;;;;;47.25;37.50;;;;;15.28;39.06;101472.16;146608;594;46020;-74
2022/02/05 09:42:54;;;;;;;;;47.75;38.50;;;;;15.33;36.67;101469.75;146602;574;46016;-74
2022/02/05 09:45:46;;;;;;;;;44.00;34.75;;;;;15.32;38.56;101466.22;146607;597;46021;-75
2022/02/05 09:48:39;;;;;;;;;44.00;34.75;;;;;15.40;39.93;101456.12;146602;565;47914;-75
2022/02/05 09:51:35;;;;;;;;;42.75;35.00;;;;;15.57;39.63;101454.22;146603;621;46021;-74
2022/02/05 09:54:28;;;;;;;;;42.25;36.50;;;;;15.72;39.28;101454.91;146605;605;46914;-74
2022/02/05 09:57:21;;;;;;;;;38.25;34.25;;;;;15.90;39.18;101444.31;146608;580;46020;-75
2022/02/05 10:00:20;;;;;;;;;37.00;32.00;;;;;16.04;38.40;101437.91;146606;570;47010;-73
2022/02/05 10:03:31;;;;;;;;;35.00;31.25;;;;;16.11;40.08;101423.37;146606;565;46020;-74
2022/02/05 10:14:13;;;;;;;;;37.25;30.00;;;;;16.21;37.94;101411.53;146605;554;46912;-75
2022/02/05 10:17:08;;;;;;;;;31.50;24.25;;;;;16.22;39.84;101411.59;146606;583;47010;-73
2022/02/05 10:20:00;;;;;;;;;30.00;26.25;;;;;16.17;40.58;101397.44;146605;642;46916;-74
2022/02/05 10:22:52;;;;;;;;;29.50;27.25;;;;;16.06;40.98;101394.41;146604;570;47914;-74
2022/02/05 10:25:44;;;;;;;;;31.50;27.75;;;;;16.09;41.09;101397.13;146604;565;45916;-74
2022/02/05 10:28:37;;;;;;;;;24.00;23.00;;;;;16.22;41.12;101393.28;146606;632;46008;-74
2022/02/05 10:31:30;;;;;;;;;31.00;28.50;;;;;16.25;40.22;101384.66;146604;581;46030;-74
2022/02/05 10:34:24;;;;;;;;;30.25;26.75;;;;;16.22;39.75;101385.41;146608;601;47008;-75
2022/02/05 10:37:21;;;;;;;;;29.75;27.75;;;;;16.22;40.29;101376.69;146600;581;46016;-75
2022/02/05 10:40:20;;;;;;;;;29.00;27.25;;;;;16.33;40.51;101383.22;146607;645;46020;-74
2022/02/05 10:43:17;;;;;;;;;26.75;24.25;;;;;16.32;38.96;101361.41;146606;574;46017;-73
2022/02/05 10:46:09;;;;;;;;;27.00;25.50;;;;;16.36;38.92;101363.31;146608;613;47008;-73
2022/02/05 10:49:01;;;;;;;;;26.75;25.50;;;;;16.32;37.15;101352.63;146605;571;47010;-73
2022/02/05 10:51:58;;;;;;;;;34.50;29.50;;;;;16.24;39.41;101348.84;146605;588;46021;-74
2022/02/05 10:55:08;;;;;;;;;26.25;24.75;;;;;16.30;39.56;101339.50;146602;669;46016;-73
2022/02/05 11:07:52;;;;;;;;;30.50;28.00;;;;;16.67;39.36;101325.16;146603;626;46017;-73
2022/02/05 11:14:27;;;;;;;;;28.50;25.00;;;;;16.69;40.53;101320.84;146604;714;46016;-74
2022/02/05 11:18:00;;;;;;;;;34.75;29.50;;;;;16.68;39.79;101324.31;146609;620;46020;-74
2022/02/05 11:20:32;;;;;;;;;23.75;22.75;;;;;16.68;41.29;101320.81;146605;590;46013;-73
2022/02/05 11:23:25;;;;;;;;;26.00;23.50;;;;;16.70;41.52;101313.88;146605;626;46008;-73
2022/02/05 11:26:18;;;;;;;;;27.00;24.75;;;;;16.77;40.18;101308.09;146603;599;46016;-74
2022/02/05 11:29:10;;;;;;;;;25.25;22.50;;;;;16.75;41.37;101300.16;146610;582;45021;-72
2022/02/05 11:32:30;;;;;;;;;18.75;16.75;;;;;16.69;41.59;101294.66;146603;645;46016;-74
2022/02/05 11:35:45;;;;;;;;;25.00;20.75;;;;;16.60;40.84;101294.34;146606;564;46020;-74
2022/02/05 11:38:39;;;;;;;;;18.25;17.00;;;;;16.53;40.23;101288.00;146605;604;46016;-73
2022/02/05 11:41:39;;;;;;;;;15.50;14.50;;;;;16.49;40.89;101287.84;146605;650;46020;-78
2022/02/05 11:44:42;;;;;;;;;20.50;17.50;;;;;16.35;41.53;101295.19;146605;586;46916;-74
2022/02/05 11:47:36;;;;;;;;;17.50;16.25;;;;;16.23;41.29;101289.50;146612;582;45020;-75
2022/02/05 11:50:29;;;;;;;;;20.25;15.50;;;;;16.15;41.27;101283.97;146606;597;46017;-76
2022/02/05 11:53:22;;;;;;;;;21.25;19.75;;;;;16.12;40.98;101283.88;146606;609;47010;-75
2022/02/05 11:56:18;;;;;;;;;16.50;14.75;;;;;16.17;40.87;101274.47;146607;569;46010;-74
2022/02/05 11:59:10;;;;;;;;;18.25;16.25;;;;;16.19;39.63;101274.53;146608;590;47008;-73
2022/02/05 12:02:22;;;;;;;;;25.00;22.00;;;;;16.30;41.66;101273.22;146607;583;46016;-75
2022/02/05 12:05:26;;;;;;;;;28.00;26.00;;;;;16.32;39.57;101274.13;146609;567;46020;-75
2022/02/05 12:08:39;;;;;;;;;24.00;19.50;;;;;15.27;39.54;101112.44;146603;564;46016;-73
2022/02/05 12:11:35;;;;;;;;;24.50;23.75;;;;;15.08;40.12;101099.47;146607;594;46021;-74
2022/02/05 12:14:28;;;;;;;;;28.50;27.50;;;;;15.92;40.39;101259.59;146603;581;46016;-76
2022/02/05 12:17:27;;;;;;;;;26.25;24.75;;;;;15.73;40.50;101267.53;146607;588;46008;-74
2022/02/05 12:20:25;;;;;;;;;31.50;26.75;;;;;15.53;41.46;101257.16;146605;569;46017;-75
2022/02/05 12:26:33;;;;;;;;;26.50;22.75;;;;;15.20;41.65;101255.00;146599;569;47011;-74
2022/02/05 12:29:30;;;;;;;;;25.00;23.25;;;;;15.24;41.47;101253.38;146611;617;46008;-74
2022/02/05 12:32:24;;;;;;;;;26.00;22.50;;;;;15.34;42.23;101252.91;146606;662;46010;-73
2022/02/05 12:35:17;;;;;;;;;26.00;22.50;;;;;15.40;41.89;101250.56;146607;570;46008;-73
2022/02/05 12:38:11;;;;;;;;;29.00;24.25;;;;;15.46;41.28;101256.03;146603;583;46016;-74
2022/02/05 12:41:03;;;;;;;;;26.25;21.00;;;;;15.60;42.52;101259.19;146604;588;46020;-73
2022/02/05 12:44:09;;;;;;;;;25.00;22.50;;;;;15.73;41.64;101250.13;146605;663;46016;-73
2022/02/05 12:47:14;;;;;;;;;21.75;20.75;;;;;15.89;42.04;101246.41;146607;616;47008;-75
2022/02/05 12:50:14;;;;;;;;;26.50;24.75;;;;;16.08;41.42;101243.63;146606;615;46011;-75
2022/02/05 12:53:07;;;;;;;;;23.25;21.25;;;;;16.23;41.11;101238.06;146605;578;46020;-75
2022/02/05 12:55:59;;;;;;;;;29.50;25.00;;;;;16.39;39.03;101234.28;146604;570;46016;-75
2022/02/05 12:59:04;;;;;;;;;27.75;25.00;;;;;16.51;40.52;101231.19;146608;578;46008;-74
2022/02/05 13:02:10;;;;;;;;;23.75;20.75;;;;;16.57;40.94;101234.94;146605;602;47010;-74
2022/02/05 13:05:02;;;;;;;;;34.50;30.00;;;;;16.67;41.77;101228.28;146607;565;46021;-74
2022/02/05 13:07:55;;;;;;;;;26.25;25.00;;;;;16.74;40.17;101235.50;146603;601;46012;-77
2022/02/05 13:10:49;;;;;;;;;28.25;24.00;;;;;16.73;40.29;101227.56;146608;631;46020;-74
2022/02/05 13:13:53;;;;;;;;;48.75;39.25;;;;;16.73;40.06;101227.56;146602;584;46016;-74
2022/02/05 13:16:47;;;;;;;;;36.25;30.75;;;;;16.71;40.71;101224.94;146606;586;46020;-74
2022/02/05 13:19:56;;;;;;;;;45.00;35.00;;;;;16.69;40.85;101223.09;146606;579;46011;-74
2022/02/05 13:29:38;;;;;;;;;30.75;24.75;;;;;17.25;40.09;101217.13;146607;604;46020;-74
2022/02/05 13:36:28;;;;;;;;;33.25;28.00;;;;;17.00;41.15;101039.91;146606;619;47021;-75
2022/02/05 13:42:53;;;;;;;;;29.75;28.50;;;;;18.45;40.08;101199.69;146606;575;46020;-75
2022/02/05 13:45:46;;;;;;;;;39.50;30.00;;;;;18.44;39.25;101201.44;146603;584;47010;-74
2022/02/05 13:48:38;;;;;;;;;26.25;26.00;;;;;18.33;39.72;101199.37;146604;619;46914;-74
2022/02/05 13:51:34;;;;;;;;;26.25;24.75;;;;;18.10;40.27;101206.59;146605;581;46016;-75
2022/02/05 13:54:37;;;;;;;;;25.50;22.75;;;;;16.99;40.22;101050.37;146605;601;46020;-75
2022/02/05 13:57:29;;;;;;;;;25.00;20.50;;;;;17.64;39.45;101207.84;146602;604;46016;-74
2022/02/05 14:00:22;;;;;;;;;23.25;20.50;;;;;17.41;39.05;101215.88;146605;669;46020;-74
2022/02/05 14:03:15;;;;;;;;;24.75;23.00;;;;;17.31;39.79;101222.56;146604;599;46915;-74
2022/02/05 14:06:16;;;;;;;;;30.00;24.50;;;;;17.31;39.98;101208.56;146608;607;46020;-74
2022/02/05 14:09:09;;;;;;;;;61.25;48.00;;;;;17.51;40.08;101214.47;146603;621;46016;-74
2022/02/05 14:12:01;;;;;;;;;33.75;30.75;;;;;17.75;39.39;101215.16;146605;601;46020;-74
2022/02/05 14:15:07;;;;;;;;;24.75;23.75;;;;;17.78;40.24;101217.91;146604;611;46016;-75
2022/02/05 14:18:29;;;;;;;;;28.25;26.50;;;;;17.07;40.08;101103.88;146606;635;46020;-74
2022/02/05 14:21:33;;;;;;;;;29.00;26.50;;;;;17.60;39.56;101216.44;146603;604;47913;-74
2022/02/05 14:24:35;;;;;;;;;39.50;34.00;;;;;17.48;40.21;101219.59;146606;573;47008;-74
2022/02/05 14:27:30;;;;;;;;;31.25;28.25;;;;;16.40;40.12;101074.66;146605;732;46012;-74
2022/02/05 14:30:26;;;;;;;;;22.50;22.50;;;;;16.98;39.45;101219.78;146609;566;46008;-74
2022/02/05 14:33:20;;;;;;;;;26.25;22.75;;;;;16.66;39.97;101221.25;146603;588;46017;-74
2022/02/05 14:36:36;;;;;;;;;23.00;22.25;;;;;16.41;40.38;101219.50;146609;566;46008;-75
2022/02/05 14:42:43;;;;;;;;;34.25;31.75;;;;;15.92;40.89;101228.22;146607;587;46021;-75
2022/02/05 14:45:35;;;;;;;;;25.00;22.00;;;;;15.69;39.45;101230.81;146603;586;46016;-76
2022/02/05 14:48:27;;;;;;;;;22.50;21.25;;;;;15.41;40.02;101230.53;146604;565;47008;-76
2022/02/05 14:51:19;;;;;;;;;23.25;23.00;;;;;15.05;40.22;101232.59;146604;596;46016;-73
2022/02/05 14:54:12;;;;;;;;;23.50;21.25;;;;;14.80;41.44;101236.78;146605;575;46020;-75
2022/02/05 14:57:04;;;;;;;;;28.50;26.50;;;;;14.60;41.85;101242.84;146602;579;47010;-74
2022/02/05 14:59:57;;;;;;;;;23.75;21.75;;;;;14.43;41.61;101242.97;146609;569;46008;-74
2022/02/05 15:02:50;;;;;;;;;26.50;26.00;;;;;14.26;41.58;101247.44;146602;584;46017;-74
2022/02/05 15:05:44;;;;;;;;;41.75;34.00;;;;;14.11;42.07;101246.75;146608;582;46029;-73
2022/02/05 15:08:36;;;;;;;;;39.75;33.75;;;;;13.98;41.91;101260.94;146601;606;46016;-75
2022/02/05 15:11:30;;;;;;;;;40.75;33.25;;;;;13.88;41.99;101253.53;146606;642;46020;-73
2022/02/05 15:14:22;;;;;;;;;38.50;31.25;;;;;12.85;42.16;101088.91;146604;631;46915;-73
2022/02/05 15:17:15;;;;;;;;;42.00;34.75;;;;;13.67;42.05;101252.53;146607;569;46008;-73
2022/02/05 15:20:07;;;;;;;;;36.25;30.00;;;;;13.60;41.66;101256.56;146603;627;46033;-73
2022/02/05 15:23:00;;;;;;;;;34.50;30.00;;;;;13.51;42.23;101251.81;146607;564;46008;-73
2022/02/05 15:25:53;;;;;;;;;42.50;35.50;;;;;13.45;42.53;101248.00;146604;595;46017;-75
2022/02/05 15:28:46;;;;;;;;;51.00;40.75;;;;;13.40;42.63;101256.50;146607;577;47008;-75
2022/02/05 15:31:39;;;;;;;;;50.75;40.00;;;;;13.34;42.95;101256.22;146603;573;47010;-73
2022/02/05 15:34:31;;;;;;;;;53.75;43.25;;;;;13.32;43.52;101260.44;146605;587;46021;-73
2022/02/05 15:37:25;;;;;;;;;51.50;41.75;;;;;13.32;44.09;101264.78;146602;607;47010;-75
2022/02/05 15:43:25;;;;;;;;;51.00;42.00;;;;;13.30;45.12;101271.59;146607;602;46021;-74
2022/02/05 15:46:53;;;;;;;;;32.25;26.25;;;;;13.14;45.27;101267.31;146609;610;46008;-74
2022/02/05 15:49:45;;;;;;;;;29.50;26.25;;;;;13.00;45.53;101270.97;146603;591;46016;-73
2022/02/05 15:52:38;;;;;;;;;25.50;22.50;;;;;12.81;45.71;101259.63;146606;632;46008;-74